createdAt,value
2019-04-07T00:01:57.547Z,10.00
2019-04-07T00:04:27.091Z,10.00
2019-04-07T00:06:56.098Z,10.00
2019-04-07T00:09:24.696Z,10.00
2019-04-07T00:11:53.625Z,10.00
2019-04-07T00:14:22.281Z,10.00
2019-04-07T00:16:50.972Z,10.00
2019-04-07T00:19:19.617Z,10.00
2019-04-07T00:21:48.291Z,10.00
2019-04-07T00:24:16.935Z,10.00
2019-04-07T00:26:45.532Z,10.00
2019-04-07T00:29:14.448Z,10.00
2019-04-07T00:31:43.250Z,10.00
2019-04-07T00:34:11.983Z,10.00
2019-04-07T00:36:40.584Z,10.00
2019-04-07T00:39:09.479Z,10.00
2019-04-07T00:41:38.721Z,10.00
2019-04-07T00:44:07.728Z,10.00
2019-04-07T00:46:36.542Z,10.00
2019-04-07T00:49:05.714Z,10.00
2019-04-07T00:51:34.424Z,10.00
2019-04-07T00:54:03.159Z,10.00
2019-04-07T00:56:31.751Z,10.00
2019-04-07T00:59:01.076Z,10.00
2019-04-07T01:01:29.685Z,10.00
2019-04-07T01:03:58.421Z,10.00
2019-04-07T01:06:27.256Z,10.10
2019-04-07T01:08:55.870Z,10.00
2019-04-07T01:11:24.506Z,10.10
2019-04-07T01:13:53.093Z,10.10
2019-04-07T01:16:22.061Z,10.10
2019-04-07T01:18:51.330Z,10.10
2019-04-07T01:21:20.709Z,10.10
2019-04-07T01:23:49.297Z,10.00
2019-04-07T01:26:18.499Z,10.10
2019-04-07T01:28:47.138Z,10.10
2019-04-07T01:31:15.756Z,10.10
2019-04-07T01:33:44.385Z,10.10
2019-04-07T01:36:13.597Z,10.10
2019-04-07T01:38:42.290Z,10.10
2019-04-07T01:41:12.831Z,10.10
2019-04-07T01:43:49.334Z,10.10
2019-04-07T01:46:19.681Z,10.10
2019-04-07T01:49:02.192Z,10.10
2019-04-07T01:51:48.794Z,10.10
2019-04-07T01:54:22.088Z,10.00
2019-04-07T01:56:58.343Z,10.10
2019-04-07T01:59:47.553Z,10.10
2019-04-07T02:02:23.706Z,10.10
2019-04-07T02:05:06.717Z,10.00
2019-04-07T02:07:37.520Z,10.00
2019-04-07T02:10:08.862Z,10.00
2019-04-07T02:12:39.113Z,10.00
2019-04-07T02:15:10.547Z,10.00
2019-04-07T02:17:41.599Z,9.90
2019-04-07T02:20:31.278Z,9.90
2019-04-07T02:23:02.009Z,9.80
2019-04-07T02:25:41.592Z,9.70
2019-04-07T02:28:21.789Z,9.60
2019-04-07T02:31:07.924Z,9.50
2019-04-07T02:33:44.164Z,9.50
2019-04-07T02:36:25.738Z,9.40
2019-04-07T02:38:58.676Z,9.30
2019-04-07T02:41:32.506Z,9.20
2019-04-07T02:44:05.579Z,9.10
2019-04-07T02:46:36.611Z,9.00
2019-04-07T02:49:13.154Z,8.90
2019-04-07T02:51:43.577Z,8.80
2019-04-07T02:54:30.309Z,8.70
2019-04-07T02:57:07.915Z,8.60
2019-04-07T03:02:33.548Z,8.50
2019-04-07T03:05:13.804Z,8.40
2019-04-07T03:07:44.517Z,8.40
2019-04-07T03:10:15.906Z,8.30
2019-04-07T03:12:58.782Z,8.30
2019-04-07T03:15:32.482Z,8.20
2019-04-07T03:18:12.604Z,8.20
2019-04-07T03:20:49.546Z,8.10
2019-04-07T03:23:26.508Z,8.10
2019-04-07T03:26:00.726Z,8.00
2019-04-07T03:28:31.049Z,8.10
2019-04-07T03:31:02.098Z,8.10
2019-04-07T03:33:36.046Z,8.00
2019-04-07T03:36:06.764Z,8.00
2019-04-07T03:38:52.486Z,8.00
2019-04-07T03:41:23.701Z,8.00
2019-04-07T03:43:54.137Z,8.00
2019-04-07T03:46:25.245Z,8.00
2019-04-07T03:49:02.042Z,8.10
2019-04-07T03:51:39.327Z,8.10
2019-04-07T03:54:28.383Z,8.10
2019-04-07T03:57:16.433Z,8.20
2019-04-07T03:59:59.511Z,8.20
2019-04-07T04:02:29.798Z,8.20
2019-04-07T04:05:03.032Z,8.30
2019-04-07T04:07:42.151Z,8.20
2019-04-07T04:10:15.962Z,8.30
2019-04-07T04:12:46.844Z,8.30
2019-04-07T04:15:26.341Z,8.30
2019-04-07T04:17:55.311Z,8.40
2019-04-07T04:20:24.076Z,8.40
2019-04-07T04:22:52.741Z,8.50
2019-04-07T04:25:21.901Z,8.50
2019-04-07T04:27:50.825Z,8.50
2019-04-07T04:30:19.816Z,8.50
2019-04-07T04:32:48.382Z,8.60
2019-04-07T04:35:17.487Z,8.60
2019-04-07T04:37:50.157Z,8.60
2019-04-07T04:40:16.621Z,8.70
2019-04-07T04:42:45.502Z,8.70
2019-04-07T04:45:15.781Z,8.70
2019-04-07T04:47:44.828Z,8.70
2019-04-07T04:50:14.730Z,8.70
2019-04-07T04:52:43.395Z,8.80
2019-04-07T04:55:13.271Z,8.80
2019-04-07T04:57:42.491Z,8.90
2019-04-07T05:00:12.221Z,8.90
2019-04-07T05:02:41.343Z,8.90
2019-04-07T05:05:10.932Z,9.00
2019-04-07T05:07:50.067Z,9.00
2019-04-07T05:10:10.451Z,9.10
2019-04-07T05:12:39.162Z,9.10
2019-04-07T05:15:09.640Z,9.10
2019-04-07T05:17:39.035Z,9.20
2019-04-07T05:20:08.045Z,9.20
2019-04-07T05:22:36.829Z,9.20
2019-04-07T05:25:07.089Z,9.30
2019-04-07T05:27:35.652Z,9.30
2019-04-07T05:30:07.748Z,9.40
2019-04-07T05:32:36.805Z,9.30
2019-04-07T05:35:08.834Z,9.40
2019-04-07T05:37:37.443Z,9.40
2019-04-07T05:40:06.675Z,9.50
2019-04-07T05:42:35.610Z,9.50
2019-04-07T05:45:06.561Z,9.60
2019-04-07T05:47:35.243Z,9.60
2019-04-07T05:50:05.499Z,9.60
2019-04-07T05:52:39.276Z,9.70
2019-04-07T05:55:06.494Z,9.80
2019-04-07T05:57:35.985Z,9.80
2019-04-07T06:00:07.944Z,9.80
2019-04-07T06:02:37.430Z,9.90
2019-04-07T06:05:07.528Z,9.90
2019-04-07T06:07:37.107Z,9.90
2019-04-07T06:10:07.988Z,10.00
2019-04-07T06:12:39.268Z,10.00
2019-04-07T06:15:07.592Z,10.10
2019-04-07T06:17:36.710Z,10.10
2019-04-07T06:20:12.108Z,10.10
2019-04-07T06:22:38.016Z,10.20
2019-04-07T06:25:09.560Z,10.20
2019-04-07T06:27:38.497Z,10.30
2019-04-07T06:30:09.759Z,10.30
2019-04-07T06:32:39.674Z,10.40
2019-04-07T06:35:12.334Z,10.40
2019-04-07T06:37:39.823Z,10.50
2019-04-07T06:40:09.089Z,10.40
2019-04-07T06:42:37.842Z,10.50
2019-04-07T06:45:10.870Z,10.50
2019-04-07T06:47:42.044Z,10.60
2019-04-07T06:50:28.683Z,10.60
2019-04-07T06:52:58.967Z,10.70
2019-04-07T06:55:30.093Z,10.80
2019-04-07T06:58:01.969Z,10.80
2019-04-07T07:00:35.294Z,10.90
2019-04-07T07:03:21.721Z,11.00
2019-04-07T07:06:08.570Z,11.10
2019-04-07T07:08:56.616Z,11.20
2019-04-07T07:11:40.809Z,11.20
2019-04-07T07:14:08.004Z,11.40
2019-04-07T07:16:46.135Z,11.40
2019-04-07T07:19:16.255Z,11.50
2019-04-07T07:21:46.796Z,11.60
2019-04-07T07:24:18.424Z,11.70
2019-04-07T07:26:46.240Z,11.80
2019-04-07T07:29:16.459Z,11.80
2019-04-07T07:31:45.242Z,12.00
2019-04-07T07:34:14.328Z,12.10
2019-04-07T07:36:42.985Z,12.20
2019-04-07T07:39:12.883Z,12.30
2019-04-07T07:41:42.226Z,12.40
2019-04-07T07:44:10.875Z,12.40
2019-04-07T07:46:39.915Z,12.60
2019-04-07T07:49:08.578Z,12.70
2019-04-07T07:51:38.671Z,12.80
2019-04-07T07:54:07.823Z,12.90
2019-04-07T07:56:36.729Z,13.00
2019-04-07T07:59:06.237Z,13.10
2019-04-07T08:01:34.875Z,13.10
2019-04-07T08:04:03.802Z,13.20
2019-04-07T08:06:32.846Z,13.30
2019-04-07T08:09:12.063Z,13.30
2019-04-07T08:11:33.820Z,13.40
2019-04-07T08:14:02.401Z,13.40
2019-04-07T08:16:31.527Z,13.40
2019-04-07T08:19:00.757Z,13.50
2019-04-07T08:21:30.097Z,13.50
2019-04-07T08:23:59.048Z,13.50
2019-04-07T08:26:27.845Z,13.60
2019-04-07T08:28:56.586Z,13.60
2019-04-07T08:31:25.422Z,13.70
2019-04-07T08:33:54.822Z,13.70
2019-04-07T08:36:23.954Z,13.80
2019-04-07T08:38:55.731Z,13.80
2019-04-07T08:41:23.451Z,13.80
2019-04-07T08:43:55.309Z,13.90
2019-04-07T08:46:22.367Z,13.90
2019-04-07T08:48:54.267Z,14.00
2019-04-07T08:51:23.019Z,14.10
2019-04-07T08:53:51.837Z,14.20
2019-04-07T08:56:24.822Z,14.20
2019-04-07T08:58:52.167Z,14.20
2019-04-07T09:01:21.353Z,14.30
2019-04-07T09:03:50.789Z,14.30
2019-04-07T09:06:20.917Z,14.30
2019-04-07T09:08:50.112Z,14.40
2019-04-07T09:11:22.420Z,14.40
2019-04-07T09:13:52.591Z,14.40
2019-04-07T09:16:29.237Z,14.40
2019-04-07T09:19:03.769Z,14.50
2019-04-07T09:21:50.716Z,14.60
2019-04-07T09:24:38.576Z,14.70
2019-04-07T09:27:22.502Z,14.70
2019-04-07T09:29:53.376Z,14.80
2019-04-07T09:32:26.297Z,14.90
2019-04-07T09:35:08.983Z,15.00
2019-04-07T09:37:53.354Z,15.00
2019-04-07T09:40:42.204Z,15.10
2019-04-07T09:43:31.927Z,15.20
2019-04-07T09:46:10.355Z,15.30
2019-04-07T09:48:40.534Z,15.40
2019-04-07T09:51:17.752Z,15.60
2019-04-07T09:53:50.381Z,15.70
2019-04-07T09:56:20.136Z,15.80
2019-04-07T09:58:56.794Z,16.00
2019-04-07T10:01:33.109Z,16.10
2019-04-07T10:04:18.369Z,16.30
2019-04-07T10:06:54.346Z,16.40
2019-04-07T10:09:41.259Z,16.50
2019-04-07T10:12:20.360Z,16.60
2019-04-07T10:15:06.486Z,16.60
2019-04-07T10:17:55.415Z,16.70
2019-04-07T10:20:42.790Z,16.70
2019-04-07T10:23:23.142Z,16.80
2019-04-07T10:25:53.538Z,16.90
2019-04-07T10:28:26.585Z,17.00
2019-04-07T10:30:56.806Z,17.00
2019-04-07T10:33:27.308Z,17.10
2019-04-07T10:36:14.759Z,17.20
2019-04-07T10:39:02.046Z,17.30
2019-04-07T10:41:50.726Z,17.30
2019-04-07T10:44:40.191Z,17.40
2019-04-07T10:47:29.141Z,17.50
2019-04-07T10:50:06.226Z,17.50
2019-04-07T10:52:46.974Z,17.60
2019-04-07T10:55:22.709Z,17.70
2019-04-07T10:57:58.836Z,17.80
2019-04-07T11:00:48.551Z,17.90
2019-04-07T11:03:29.364Z,18.00
2019-04-07T11:06:00.420Z,18.10
2019-04-07T11:08:30.956Z,18.20
2019-04-07T11:11:01.364Z,18.40
2019-04-07T11:13:44.397Z,18.40
2019-04-07T11:16:27.021Z,18.40
2019-04-07T11:19:17.600Z,18.60
2019-04-07T11:21:51.726Z,18.70
2019-04-07T11:24:22.125Z,18.80
2019-04-07T11:26:55.119Z,18.90
2019-04-07T11:29:41.576Z,19.00
2019-04-07T11:32:28.836Z,19.10
2019-04-07T11:35:11.251Z,19.20
2019-04-07T11:37:48.436Z,19.30
2019-04-07T11:40:42.088Z,19.40
2019-04-07T11:43:09.567Z,19.50
2019-04-07T11:45:58.320Z,19.70
2019-04-07T11:48:38.259Z,19.80
2019-04-07T11:51:26.964Z,20.00
2019-04-07T11:53:59.974Z,20.10
2019-04-07T11:56:43.368Z,20.20
2019-04-07T11:59:16.637Z,20.30
2019-04-07T12:01:49.520Z,20.40
2019-04-07T12:04:21.737Z,20.60
2019-04-07T12:07:00.721Z,20.70
2019-04-07T12:09:40.088Z,20.70
2019-04-07T12:12:25.354Z,20.70
2019-04-07T12:15:02.160Z,20.80
2019-04-07T12:17:33.004Z,20.90
2019-04-07T12:20:19.489Z,21.00
2019-04-07T12:22:52.892Z,21.00
2019-04-07T12:25:23.398Z,21.10
2019-04-07T12:27:56.717Z,21.30
2019-04-07T12:30:33.796Z,21.40
2019-04-07T12:33:07.902Z,21.50
2019-04-07T12:35:54.998Z,21.60
2019-04-07T12:38:43.229Z,21.70
2019-04-07T12:41:16.969Z,21.90
2019-04-07T12:43:48.608Z,22.10
2019-04-07T12:46:21.003Z,22.20
2019-04-07T12:48:51.409Z,22.40
2019-04-07T12:51:22.399Z,22.60
2019-04-07T12:54:02.018Z,22.90
2019-04-07T12:56:34.251Z,23.00
2019-04-07T12:59:21.177Z,23.20
2019-04-07T13:01:54.563Z,23.40
2019-04-07T13:04:25.547Z,23.70
2019-04-07T13:07:17.736Z,23.90
2019-04-07T13:09:53.789Z,24.20
2019-04-07T13:12:27.281Z,24.50
2019-04-07T13:15:10.974Z,24.70
2019-04-07T13:17:42.056Z,25.10
2019-04-07T13:20:18.083Z,25.40
2019-04-07T13:22:53.492Z,25.70
2019-04-07T13:25:24.252Z,25.90
2019-04-07T13:27:55.319Z,26.00
2019-04-07T13:30:28.477Z,26.00
2019-04-07T13:33:16.139Z,26.10
2019-04-07T13:35:59.659Z,26.10
2019-04-07T13:38:32.877Z,26.20
2019-04-07T13:41:04.036Z,26.30
2019-04-07T13:43:51.661Z,26.40
2019-04-07T13:46:36.112Z,26.60
2019-04-07T13:49:09.705Z,26.80
2019-04-07T13:51:42.701Z,26.80
2019-04-07T13:54:32.163Z,26.80
2019-04-07T13:57:06.641Z,26.70
2019-04-07T13:59:42.683Z,26.60
2019-04-07T14:02:14.390Z,26.60
2019-04-07T14:04:44.606Z,26.70
2019-04-07T14:07:27.290Z,26.80
2019-04-07T14:10:05.141Z,26.80
2019-04-07T14:12:54.358Z,26.80
2019-04-07T14:15:40.980Z,26.80
2019-04-07T14:18:14.373Z,26.80
2019-04-07T14:20:54.029Z,26.70
2019-04-07T14:23:25.139Z,26.70
2019-04-07T14:26:07.865Z,26.70
2019-04-07T14:28:47.611Z,26.70
2019-04-07T14:31:34.747Z,26.90
2019-04-07T14:34:21.801Z,27.00
2019-04-07T14:37:05.344Z,27.10
2019-04-07T14:39:39.012Z,27.20
2019-04-07T14:42:15.219Z,27.40
2019-04-07T14:44:52.254Z,27.40
2019-04-07T14:47:28.449Z,27.40
2019-04-07T14:49:58.680Z,27.40
2019-04-07T14:52:31.906Z,27.50
2019-04-07T14:55:05.057Z,27.50
2019-04-07T14:57:41.541Z,27.50
2019-04-07T15:00:12.656Z,27.60
2019-04-07T15:02:41.228Z,27.60
2019-04-07T15:05:12.548Z,27.70
2019-04-07T15:07:42.835Z,27.40
2019-04-07T15:10:25.396Z,27.20
2019-04-07T15:12:56.792Z,27.00
2019-04-07T15:15:25.527Z,26.90
2019-04-07T15:17:54.377Z,26.90
2019-04-07T15:20:23.885Z,26.80
2019-04-07T15:22:52.862Z,26.80
2019-04-07T15:25:22.615Z,26.80
2019-04-07T15:27:55.259Z,26.70
2019-04-07T15:30:22.303Z,26.80
2019-04-07T15:32:51.584Z,26.80
2019-04-07T15:35:21.269Z,26.90
2019-04-07T15:37:51.864Z,26.90
2019-04-07T15:40:20.452Z,27.00
2019-04-07T15:42:51.065Z,26.90
2019-04-07T15:45:20.455Z,26.80
2019-04-07T15:47:52.246Z,26.50
2019-04-07T15:50:20.109Z,26.20
2019-04-07T15:52:48.708Z,25.60
2019-04-07T15:55:17.736Z,25.00
2019-04-07T15:57:46.254Z,24.20
2019-04-07T16:00:16.544Z,23.60
2019-04-07T16:02:46.026Z,23.00
2019-04-07T16:05:15.853Z,22.40
2019-04-07T16:07:44.920Z,21.80
2019-04-07T16:10:18.638Z,21.00
2019-04-07T16:12:50.753Z,20.50
2019-04-07T16:15:18.110Z,20.00
2019-04-07T16:17:47.595Z,19.60
2019-04-07T16:20:22.951Z,19.30
2019-04-07T16:22:49.233Z,19.00
2019-04-07T16:25:17.763Z,18.90
2019-04-07T16:27:47.437Z,18.90
2019-04-07T16:30:19.020Z,19.20
2019-04-07T16:32:47.015Z,19.50
2019-04-07T16:35:16.621Z,19.80
2019-04-07T16:37:45.770Z,20.00
2019-04-07T16:40:15.841Z,20.10
2019-04-07T16:43:00.225Z,20.10
2019-04-07T16:45:17.837Z,19.90
2019-04-07T16:47:45.685Z,19.70
2019-04-07T16:50:18.092Z,19.20
2019-04-07T16:52:45.125Z,18.90
2019-04-07T16:55:32.705Z,18.50
2019-04-07T16:58:02.342Z,18.20
2019-04-07T17:00:32.392Z,17.70
2019-04-07T17:03:01.390Z,17.40
2019-04-07T17:05:30.349Z,17.10
2019-04-07T17:07:59.483Z,16.80
2019-04-07T17:10:30.963Z,16.50
2019-04-07T17:13:00.850Z,16.00
2019-04-07T17:15:29.625Z,15.90
2019-04-07T17:17:58.825Z,15.70
2019-04-07T17:20:28.417Z,15.60
2019-04-07T17:22:58.269Z,15.50
2019-04-07T17:25:27.009Z,15.50
2019-04-07T17:27:58.419Z,15.40
2019-04-07T17:30:27.048Z,15.20
2019-04-07T17:32:56.581Z,15.10
2019-04-07T17:35:25.300Z,14.90
2019-04-07T17:37:59.797Z,14.90
2019-04-07T17:40:26.958Z,14.80
2019-04-07T17:42:57.211Z,14.70
2019-04-07T17:45:43.987Z,14.60
2019-04-07T17:48:37.032Z,14.50
2019-04-07T17:51:10.603Z,14.40
2019-04-07T17:53:46.591Z,14.40
2019-04-07T17:56:32.388Z,14.20
2019-04-07T17:59:02.637Z,14.20
2019-04-07T18:01:52.408Z,14.10
2019-04-07T18:04:25.057Z,14.00
2019-04-07T18:07:03.613Z,13.90
2019-04-07T18:09:33.544Z,13.80
2019-04-07T18:12:23.891Z,13.80
2019-04-07T18:15:10.662Z,13.70
2019-04-07T18:17:58.746Z,13.70
2019-04-07T18:20:44.468Z,13.60
2019-04-07T18:23:15.753Z,13.60
2019-04-07T18:25:50.872Z,13.50
2019-04-07T18:28:30.563Z,13.50
2019-04-07T18:31:04.342Z,13.40
2019-04-07T18:33:39.228Z,13.30
2019-04-07T18:36:09.466Z,13.20
2019-04-07T18:38:54.981Z,13.10
2019-04-07T18:41:41.566Z,13.10
2019-04-07T18:44:28.370Z,13.00
2019-04-07T18:47:15.137Z,12.80
2019-04-07T18:49:48.522Z,12.70
2019-04-07T18:52:35.774Z,12.50
2019-04-07T18:55:09.778Z,12.40
2019-04-07T18:57:41.642Z,12.30
2019-04-07T19:00:24.588Z,12.20
2019-04-07T19:03:04.503Z,12.10
2019-04-07T19:05:39.014Z,12.00
2019-04-07T19:08:12.004Z,11.90
2019-04-07T19:10:46.254Z,11.80
2019-04-07T19:13:18.563Z,11.70
2019-04-07T19:16:04.855Z,11.60
2019-04-07T19:18:35.082Z,11.60
2019-04-07T19:21:11.839Z,11.50
2019-04-07T19:23:45.993Z,11.40
2019-04-07T19:26:32.402Z,11.40
2019-04-07T19:29:09.253Z,11.40
2019-04-07T19:31:43.810Z,11.40
2019-04-07T19:34:30.086Z,11.40
2019-04-07T19:37:01.811Z,11.40
2019-04-07T19:39:41.354Z,11.40
2019-04-07T19:42:12.361Z,11.40
2019-04-07T19:44:59.529Z,11.40
2019-04-07T19:47:39.581Z,11.30
2019-04-07T19:50:27.033Z,11.30
2019-04-07T19:52:57.251Z,11.30
2019-04-07T19:55:28.306Z,11.30
2019-04-07T19:58:15.790Z,11.30
2019-04-07T20:00:52.857Z,11.30
2019-04-07T20:03:24.267Z,11.30
2019-04-07T20:06:00.717Z,11.30
2019-04-07T20:08:47.319Z,11.30
2019-04-07T20:11:32.518Z,11.30
2019-04-07T20:14:02.935Z,11.30
2019-04-07T20:16:43.383Z,11.30
2019-04-07T20:19:28.943Z,11.30
2019-04-07T20:22:01.121Z,11.30
2019-04-07T20:24:34.612Z,11.30
2019-04-07T20:27:22.645Z,11.20
2019-04-07T20:29:58.384Z,11.20
2019-04-07T20:32:41.277Z,11.20
2019-04-07T20:35:15.622Z,11.10
2019-04-07T20:37:46.673Z,11.10
2019-04-07T20:40:37.114Z,11.10
2019-04-07T20:43:05.531Z,11.10
2019-04-07T20:45:51.820Z,11.10
2019-04-07T20:48:22.077Z,11.10
2019-04-07T20:50:56.160Z,11.10
2019-04-07T20:53:35.176Z,11.10
2019-04-07T20:56:09.344Z,11.10
2019-04-07T20:58:56.697Z,11.10
2019-04-07T21:01:38.686Z,11.00
2019-04-07T21:04:14.949Z,11.00
2019-04-07T21:06:55.140Z,11.00
2019-04-07T21:09:43.883Z,11.00
2019-04-07T21:12:17.333Z,11.00
2019-04-07T21:14:53.547Z,11.00
2019-04-07T21:17:32.803Z,10.90
2019-04-07T21:20:05.377Z,10.90
2019-04-07T21:22:42.972Z,10.90
2019-04-07T21:25:23.905Z,10.80
2019-04-07T21:28:00.120Z,10.80
2019-04-07T21:30:31.143Z,10.90
2019-04-07T21:33:07.790Z,10.80
2019-04-07T21:35:53.384Z,10.90
2019-04-07T21:38:39.112Z,10.80
2019-04-07T21:41:12.221Z,10.80
2019-04-07T21:43:42.442Z,10.80
2019-04-07T21:46:15.415Z,10.90
2019-04-07T21:48:51.233Z,10.80
2019-04-07T21:51:31.040Z,10.90
2019-04-07T21:54:25.695Z,10.90
2019-04-07T21:57:04.980Z,10.80
2019-04-07T21:59:35.471Z,10.80
2019-04-07T22:04:56.590Z,10.70
2019-04-07T22:07:38.139Z,10.70
2019-04-07T22:10:09.520Z,10.70
2019-04-07T22:12:38.110Z,10.60
2019-04-07T22:15:11.720Z,10.60
2019-04-07T22:17:39.394Z,10.60
2019-04-07T22:20:10.492Z,10.60
2019-04-07T22:22:39.244Z,10.60
2019-04-07T22:25:09.679Z,10.60
2019-04-07T22:27:38.967Z,10.60
2019-04-07T22:30:11.207Z,10.60
2019-04-07T22:32:40.668Z,10.60
2019-04-07T22:35:10.539Z,10.60
2019-04-07T22:37:39.875Z,10.60
2019-04-07T22:40:17.604Z,10.60
2019-04-07T22:42:48.508Z,10.60
2019-04-07T22:45:17.122Z,10.60
2019-04-07T22:47:46.664Z,10.70
2019-04-07T22:50:15.481Z,10.70
2019-04-07T22:52:47.337Z,10.70
2019-04-07T22:55:14.534Z,10.70
2019-04-07T22:57:44.104Z,10.70
2019-04-07T23:00:15.294Z,10.70
2019-04-07T23:02:44.455Z,10.70
2019-04-07T23:05:13.176Z,10.70
2019-04-07T23:07:41.863Z,10.70
2019-04-07T23:10:11.220Z,10.60
2019-04-07T23:12:40.959Z,10.70
2019-04-07T23:15:09.922Z,10.60
2019-04-07T23:17:38.469Z,10.60
2019-04-07T23:20:07.233Z,10.70
2019-04-07T23:22:36.161Z,10.60
2019-04-07T23:25:06.343Z,10.60
2019-04-07T23:27:35.958Z,10.60
2019-04-07T23:30:08.662Z,10.60
2019-04-07T23:32:37.388Z,10.60
2019-04-07T23:35:08.293Z,10.60
2019-04-07T23:37:37.022Z,10.60
2019-04-07T23:40:06.816Z,10.60
2019-04-07T23:42:36.166Z,10.60
2019-04-07T23:45:06.927Z,10.60
2019-04-07T23:47:36.612Z,10.60
2019-04-07T23:50:07.076Z,10.60
2019-04-07T23:52:35.713Z,10.60
2019-04-07T23:55:04.502Z,10.60
2019-04-07T23:57:33.091Z,10.50
